Time;durP1;ratioP1;P1;durP2;ratioP2;P2;SDS_P1;SDS_P2;PMS_P1;PMS_P2;Temp;Humidity;BMP_temperature;BMP_pressure;BME280_temperature;BME280_humidity;BME280_pressure;Samples;Min_cycle;Max_cycle;Signal;HPM_P1;HPM_P2
2022/06/18 00:00:53;;;;;;;2.42;2.22;;;23.50;55.10;;;;;;5052122;28;20175;-67
2022/06/18 00:03:19;;;;;;;3.00;2.80;;;23.50;55.10;;;;;;5052767;28;20710;-67
2022/06/18 00:05:45;;;;;;;3.15;2.55;;;23.50;55.10;;;;;;5052762;28;20229;-66
2022/06/18 00:08:13;;;;;;;2.67;2.38;;;23.50;55.10;;;;;;5051066;28;20230;-67
2022/06/18 00:10:39;;;;;;;3.35;2.75;;;23.50;55.20;;;;;;5051732;28;20179;-68
2022/06/18 00:15:59;;;;;;;5.63;2.55;;;23.50;55.20;;;;;;5052488;28;20189;-69
2022/06/18 00:18:25;;;;;;;3.47;2.22;;;23.50;55.20;;;;;;5052930;28;20258;-69
2022/06/18 00:20:50;;;;;;;2.70;2.50;;;23.50;55.20;;;;;;5051727;28;20690;-69
2022/06/18 00:23:16;;;;;;;2.42;2.22;;;23.40;55.10;;;;;;5052619;28;20218;-68
2022/06/18 00:25:44;;;;;;;2.53;2.33;;;23.50;55.30;;;;;;5052429;28;20206;-68
2022/06/18 00:28:12;;;;;;;3.72;3.17;;;23.50;55.20;;;;;;5051908;28;20716;-67
2022/06/18 00:30:39;;;;;;;2.92;2.30;;;23.50;55.30;;;;;;5051466;28;20183;-68
2022/06/18 00:33:05;;;;;;;2.70;2.50;;;23.40;55.20;;;;;;5052558;28;20179;-67
2022/06/18 00:35:30;;;;;;;2.60;2.40;;;23.40;55.30;;;;;;5051887;28;20518;-67
2022/06/18 00:37:58;;;;;;;3.03;2.60;;;23.40;55.20;;;;;;5052239;28;20638;-67
2022/06/18 00:40:30;;;;;;;3.92;2.33;;;23.40;55.40;;;;;;5051518;28;20198;-67
2022/06/18 00:42:57;;;;;;;2.42;2.20;;;23.40;55.20;;;;;;5050406;28;20262;-68
2022/06/18 00:45:25;;;;;;;2.35;2.15;;;23.40;55.90;;;;;;5051349;28;20178;-68
2022/06/18 00:48:14;;;;;;;2.58;2.40;;;23.40;55.30;;;;;;5051103;28;20772;-68
2022/06/18 00:50:52;;;;;;;2.67;2.47;;;23.40;55.30;;;;;;5051392;28;20635;-68
2022/06/18 00:53:22;;;;;;;3.33;2.70;;;23.50;55.30;;;;;;5054502;28;20175;-68
2022/06/18 00:55:56;;;;;;;3.03;2.75;;;23.40;55.30;;;;;;5054394;28;20209;-68
2022/06/18 00:58:31;;;;;;;2.65;2.45;;;23.40;55.30;;;;;;5056439;28;20181;-67
2022/06/18 01:00:57;;;;;;;3.13;2.58;;;23.40;55.40;;;;;;5054799;28;20228;-67
2022/06/18 01:03:34;;;;;;;3.50;3.20;;;23.40;55.40;;;;;;5054154;28;20230;-66
2022/06/18 01:06:02;;;;;;;2.78;2.58;;;23.40;55.40;;;;;;5056286;28;20171;-67
2022/06/18 01:08:30;;;;;;;2.75;2.50;;;23.40;55.40;;;;;;5055048;28;20171;-67
2022/06/18 01:11:00;;;;;;;2.40;2.30;;;23.40;55.40;;;;;;5053975;28;20187;-69
2022/06/18 01:13:29;;;;;;;2.90;2.70;;;23.40;55.40;;;;;;5055086;28;20167;-69
2022/06/18 01:15:55;;;;;;;2.70;2.50;;;23.40;55.50;;;;;;5054576;28;20402;-69
2022/06/18 01:18:20;;;;;;;3.08;2.72;;;23.40;55.50;;;;;;5054355;28;20168;-69
2022/06/18 01:20:49;;;;;;;2.60;2.40;;;23.40;55.50;;;;;;5055885;28;20183;-69
2022/06/18 01:23:43;;;;;;;3.15;2.60;;;23.30;55.50;;;;;;5054777;28;20217;-69
2022/06/18 01:26:09;;;;;;;3.20;2.80;;;23.40;55.60;;;;;;5054755;28;20541;-68
2022/06/18 01:28:34;;;;;;;2.78;2.58;;;23.30;55.50;;;;;;5054778;28;20187;-68
2022/06/18 01:31:00;;;;;;;2.53;2.33;;;23.30;55.60;;;;;;5053904;28;20329;-67
2022/06/18 01:33:25;;;;;;;3.00;2.38;;;23.40;55.60;;;;;;5055732;28;20660;-67
2022/06/18 01:35:52;;;;;;;4.45;2.80;;;23.30;55.60;;;;;;5055390;28;20179;-67
2022/06/18 01:38:18;;;;;;;3.10;2.80;;;23.30;55.60;;;;;;5054980;28;20670;-67
2022/06/18 01:43:50;;;;;;;3.65;2.78;;;23.30;55.60;;;;;;5054312;28;20209;-67
2022/06/18 01:46:15;;;;;;;3.40;2.40;;;23.30;55.60;;;;;;5054915;28;20186;-68
2022/06/18 01:48:41;;;;;;;3.42;2.92;;;23.30;55.70;;;;;;5055418;28;20171;-68
2022/06/18 01:51:10;;;;;;;4.35;3.00;;;23.30;55.60;;;;;;5054442;28;20634;-69
2022/06/18 01:53:39;;;;;;;3.10;2.80;;;23.30;55.60;;;;;;5053311;28;20187;-68
2022/06/18 01:56:13;;;;;;;2.80;2.60;;;23.30;55.70;;;;;;5054200;28;20179;-68
2022/06/18 01:58:50;;;;;;;4.65;3.10;;;23.30;55.70;;;;;;5053150;28;20179;-67
2022/06/18 02:01:19;;;;;;;3.92;3.13;;;23.30;55.70;;;;;;5054075;28;20193;-67
2022/06/18 02:03:44;;;;;;;3.65;3.10;;;23.20;55.70;;;;;;5052393;28;20242;-67
2022/06/18 02:06:10;;;;;;;3.65;2.75;;;23.30;55.70;;;;;;5054499;28;20510;-67
2022/06/18 02:08:35;;;;;;;3.55;3.25;;;23.30;55.80;;;;;;5055054;28;20598;-67
2022/06/18 02:11:03;;;;;;;5.03;3.15;;;23.20;55.70;;;;;;5054967;28;20167;-68
2022/06/18 02:13:40;;;;;;;3.00;2.80;;;23.30;55.70;;;;;;5053151;28;20274;-68
2022/06/18 02:16:08;;;;;;;2.90;2.70;;;23.20;55.70;;;;;;5054016;28;20186;-70
2022/06/18 02:18:33;;;;;;;3.47;3.10;;;23.20;55.70;;;;;;5055086;28;20186;-69
2022/06/18 02:20:59;;;;;;;2.90;2.60;;;23.30;55.80;;;;;;5052689;28;20171;-69
2022/06/18 02:23:24;;;;;;;5.85;3.53;;;23.20;55.80;;;;;;5054020;28;20210;-68
2022/06/18 02:25:50;;;;;;;3.42;3.17;;;23.20;55.80;;;;;;5053610;28;20182;-68
2022/06/18 02:28:37;;;;;;;3.35;3.05;;;23.20;55.80;;;;;;5053367;28;20270;-68
2022/06/18 02:31:03;;;;;;;3.90;3.13;;;23.20;55.80;;;;;;5052293;28;20488;-68
2022/06/18 02:33:38;;;;;;;3.55;3.00;;;23.20;55.80;;;;;;5052577;28;20174;-66
2022/06/18 02:36:10;;;;;;;3.38;2.95;;;23.20;55.80;;;;;;5053593;28;20229;-68
2022/06/18 02:38:36;;;;;;;3.83;3.53;;;23.20;55.80;;;;;;5052334;28;20201;-67
2022/06/18 02:41:01;;;;;;;3.30;2.60;;;23.20;55.80;;;;;;5052739;28;20631;-68
2022/06/18 02:43:27;;;;;;;4.28;2.90;;;23.20;55.90;;;;;;5053465;28;20214;-67
2022/06/18 02:45:53;;;;;;;3.85;2.95;;;23.20;55.80;;;;;;5052038;28;20178;-67
2022/06/18 02:48:20;;;;;;;5.28;3.53;;;23.20;55.90;;;;;;5051563;28;20175;-68
2022/06/18 02:50:45;;;;;;;5.22;3.47;;;23.20;56.00;;;;;;5052990;28;20179;-68
2022/06/18 02:53:12;;;;;;;3.45;3.15;;;23.20;56.00;;;;;;5052084;28;20171;-68
2022/06/18 02:55:42;;;;;;;3.42;2.85;;;23.20;56.00;;;;;;5052649;28;20180;-68
2022/06/18 02:58:35;;;;;;;4.60;3.38;;;23.20;56.10;;;;;;5053373;28;20199;-67
2022/06/18 03:01:07;;;;;;;3.75;3.45;;;23.20;56.00;;;;;;5052167;28;20195;-67
2022/06/18 03:03:36;;;;;;;3.40;3.10;;;23.10;56.00;;;;;;5052232;28;20621;-67
2022/06/18 03:06:01;;;;;;;3.70;3.22;;;23.20;56.10;;;;;;5053080;28;20565;-67
2022/06/18 03:08:29;;;;;;;4.00;3.40;;;23.10;56.10;;;;;;5053237;28;20182;-68
2022/06/18 03:13:39;;;;;;;2.88;2.67;;;23.10;56.00;;;;;;5052828;28;20329;-69
2022/06/18 03:16:06;;;;;;;4.35;3.50;;;23.10;56.00;;;;;;5052062;28;20196;-69
2022/06/18 03:18:31;;;;;;;3.85;3.30;;;23.10;56.70;;;;;;5053132;28;20597;-68
2022/06/18 03:21:15;;;;;;;4.03;3.15;;;23.20;56.10;;;;;;5051543;28;20696;-69
2022/06/18 03:23:42;;;;;;;4.28;3.55;;;23.20;56.00;;;;;;5051823;28;20206;-68
2022/06/18 03:26:07;;;;;;;3.70;3.03;;;23.20;56.10;;;;;;5052751;28;20193;-68
2022/06/18 03:28:33;;;;;;;3.60;2.90;;;23.20;56.00;;;;;;5053016;28;20187;-68
2022/06/18 03:30:59;;;;;;;4.00;3.60;;;23.20;56.00;;;;;;5051738;28;20596;-67
2022/06/18 03:33:24;;;;;;;4.28;3.10;;;23.10;55.90;;;;;;5052823;28;20622;-67
2022/06/18 03:35:50;;;;;;;3.72;3.42;;;23.20;56.00;;;;;;5052432;28;20175;-67
2022/06/18 03:38:15;;;;;;;3.33;3.03;;;23.10;55.90;;;;;;5050669;28;20179;-67
2022/06/18 03:40:43;;;;;;;3.25;2.95;;;23.20;56.00;;;;;;5052178;28;20171;-68
2022/06/18 03:43:09;;;;;;;3.63;3.33;;;23.20;56.00;;;;;;5052628;28;20276;-68
2022/06/18 03:45:40;;;;;;;3.03;2.83;;;23.20;56.00;;;;;;5051761;28;20246;-68
2022/06/18 03:48:05;;;;;;;3.50;3.20;;;23.20;56.00;;;;;;5051321;28;20185;-68
2022/06/18 03:50:31;;;;;;;3.63;3.25;;;23.20;55.90;;;;;;5051079;28;20258;-68
2022/06/18 03:52:56;;;;;;;3.13;2.75;;;23.20;55.90;;;;;;5051187;28;20175;-69
2022/06/18 03:55:24;;;;;;;3.88;3.20;;;23.20;55.90;;;;;;5052169;28;20338;-68
2022/06/18 03:57:49;;;;;;;3.50;3.20;;;23.10;55.90;;;;;;5052053;28;20239;-68
2022/06/18 04:00:18;;;;;;;4.30;3.30;;;23.10;55.90;;;;;;5051461;28;20309;-67
2022/06/18 04:02:43;;;;;;;3.30;2.95;;;23.20;55.90;;;;;;5050468;28;20207;-67
2022/06/18 04:05:10;;;;;;;3.40;3.10;;;23.20;55.90;;;;;;5051578;28;20249;-66
2022/06/18 04:07:35;;;;;;;3.55;3.20;;;23.20;55.90;;;;;;5052043;28;20175;-67
2022/06/18 04:10:02;;;;;;;3.33;3.03;;;23.10;55.90;;;;;;5051935;28;20205;-69
2022/06/18 04:12:28;;;;;;;3.33;3.13;;;23.20;56.00;;;;;;5051550;28;20203;-68
2022/06/18 04:14:54;;;;;;;3.50;3.20;;;23.20;55.90;;;;;;5051689;28;20194;-69
2022/06/18 04:17:20;;;;;;;3.75;3.45;;;23.20;55.90;;;;;;5051953;28;20204;-69
2022/06/18 04:19:46;;;;;;;3.70;3.40;;;23.20;56.00;;;;;;5050937;28;20182;-69
2022/06/18 04:22:11;;;;;;;3.67;3.38;;;23.20;56.00;;;;;;5051732;28;20199;-69
2022/06/18 04:24:37;;;;;;;3.03;2.83;;;23.20;55.90;;;;;;5051505;28;20238;-69
2022/06/18 04:27:04;;;;;;;3.20;2.90;;;23.20;55.90;;;;;;5050389;28;20250;-69
2022/06/18 04:29:30;;;;;;;3.80;3.40;;;23.20;55.80;;;;;;5051764;28;20610;-68
2022/06/18 04:31:56;;;;;;;3.45;3.15;;;23.20;55.90;;;;;;5051322;28;20175;-68
2022/06/18 04:34:21;;;;;;;3.25;3.00;;;23.20;55.80;;;;;;5051013;28;20188;-68
2022/06/18 04:36:47;;;;;;;3.08;2.88;;;23.20;55.80;;;;;;5051553;28;20635;-68
2022/06/18 04:39:12;;;;;;;4.18;3.00;;;23.20;55.80;;;;;;5051607;28;20170;-68
2022/06/18 04:41:38;;;;;;;3.38;3.08;;;23.20;55.80;;;;;;5050894;28;20179;-68
2022/06/18 04:44:04;;;;;;;3.22;3.03;;;23.30;55.80;;;;;;5051662;28;20294;-68
2022/06/18 04:46:29;;;;;;;3.45;3.17;;;23.20;55.80;;;;;;5051596;28;20178;-68
2022/06/18 04:48:55;;;;;;;3.58;3.28;;;23.20;55.70;;;;;;5050629;28;20277;-68
2022/06/18 04:51:20;;;;;;;3.33;3.00;;;23.20;55.70;;;;;;5051503;28;20562;-68
2022/06/18 04:53:46;;;;;;;3.08;2.78;;;23.20;55.70;;;;;;5051070;28;20179;-68
2022/06/18 04:56:12;;;;;;;3.40;3.10;;;23.30;55.80;;;;;;5050815;28;20198;-68
2022/06/18 04:58:37;;;;;;;3.10;2.90;;;23.30;55.70;;;;;;5051646;28;20668;-68
2022/06/18 05:01:03;;;;;;;3.50;3.20;;;23.20;55.70;;;;;;5051552;28;20174;-67
2022/06/18 05:03:28;;;;;;;4.30;3.15;;;23.20;55.70;;;;;;5050481;28;20231;-67
2022/06/18 05:05:54;;;;;;;2.80;2.60;;;23.30;55.70;;;;;;5051168;28;20197;-66
2022/06/18 05:08:19;;;;;;;3.55;3.25;;;23.30;55.70;;;;;;5051138;28;20706;-67
2022/06/18 05:10:45;;;;;;;3.20;2.97;;;23.20;55.70;;;;;;5050747;28;20680;-69
2022/06/18 05:13:11;;;;;;;3.47;3.28;;;23.30;55.70;;;;;;5051511;28;20536;-69
2022/06/18 05:15:37;;;;;;;3.30;3.10;;;23.30;55.60;;;;;;5050486;28;20304;-70
2022/06/18 05:18:03;;;;;;;3.17;2.97;;;23.30;55.70;;;;;;5051072;28;20224;-69
2022/06/18 05:20:28;;;;;;;3.67;3.17;;;23.30;55.60;;;;;;5051274;28;20264;-69
2022/06/18 05:22:54;;;;;;;3.33;2.92;;;23.30;55.70;;;;;;5050184;28;20175;-70
2022/06/18 05:25:19;;;;;;;3.13;2.92;;;23.30;55.60;;;;;;5051379;28;20179;-69
2022/06/18 05:27:45;;;;;;;3.35;3.05;;;23.30;55.60;;;;;;5051112;28;20198;-69
2022/06/18 05:30:13;;;;;;;3.53;3.22;;;23.30;55.70;;;;;;5050666;28;20610;-68
2022/06/18 05:32:39;;;;;;;3.08;2.88;;;23.30;55.60;;;;;;5051089;28;20176;-67
2022/06/18 05:35:05;;;;;;;4.07;2.70;;;23.30;55.60;;;;;;5051147;28;20194;-67
2022/06/18 05:37:31;;;;;;;5.55;3.17;;;23.30;55.60;;;;;;5050557;28;20193;-68
2022/06/18 05:39:57;;;;;;;3.10;2.90;;;23.30;55.60;;;;;;5053552;28;20698;-67
2022/06/18 05:42:22;;;;;;;3.08;2.88;;;23.30;55.60;;;;;;5055011;28;20256;-68
2022/06/18 05:44:48;;;;;;;3.67;3.10;;;23.40;55.60;;;;;;5053874;28;20563;-68
2022/06/18 05:47:20;;;;;;;3.30;3.10;;;23.30;55.60;;;;;;5054596;28;20178;-68
2022/06/18 05:49:46;;;;;;;3.80;3.33;;;23.40;55.60;;;;;;5054330;28;20175;-69
2022/06/18 05:52:12;;;;;;;3.45;3.15;;;23.40;55.70;;;;;;5053984;28;20175;-68
2022/06/18 05:54:37;;;;;;;3.15;2.95;;;23.40;55.60;;;;;;5054545;28;20274;-69
2022/06/18 05:57:03;;;;;;;4.00;3.60;;;23.40;55.70;;;;;;5054496;28;20176;-69
2022/06/18 05:59:29;;;;;;;3.10;2.83;;;23.40;55.70;;;;;;5053645;28;20649;-67
2022/06/18 06:01:56;;;;;;;3.00;2.80;;;23.40;55.60;;;;;;5054011;28;20193;-67
2022/06/18 06:04:22;;;;;;;3.42;3.13;;;23.40;55.60;;;;;;5054067;28;20318;-68
2022/06/18 06:06:48;;;;;;;3.08;2.88;;;23.40;55.60;;;;;;5053195;28;20254;-67
2022/06/18 06:11:28;;;;;;;3.22;2.92;;;23.40;55.60;;;;;;5054348;28;20269;-68
2022/06/18 06:11:59;;;;;;;3.40;3.17;;;23.40;55.60;;;;;;5053092;28;20179;-68
2022/06/18 06:14:24;;;;;;;3.20;2.90;;;23.50;55.70;;;;;;5054128;28;20178;-68
2022/06/18 06:16:50;;;;;;;3.00;2.78;;;23.40;55.70;;;;;;5053790;28;20191;-69
2022/06/18 06:19:15;;;;;;;3.70;2.80;;;23.40;55.70;;;;;;5053401;28;20175;-68
2022/06/18 06:21:41;;;;;;;3.17;2.88;;;23.40;55.60;;;;;;5053871;28;20175;-68
2022/06/18 06:24:06;;;;;;;3.13;2.92;;;23.50;55.70;;;;;;5054026;28;20597;-68
2022/06/18 06:26:33;;;;;;;3.15;2.95;;;23.40;55.70;;;;;;5053211;28;20525;-68
2022/06/18 06:29:00;;;;;;;3.22;3.00;;;23.50;55.70;;;;;;5052358;28;20206;-67
2022/06/18 06:31:26;;;;;;;3.30;3.05;;;23.50;55.80;;;;;;5053683;28;20278;-67
2022/06/18 06:33:51;;;;;;;2.85;2.65;;;23.50;55.70;;;;;;5052552;28;20266;-67
2022/06/18 06:36:17;;;;;;;3.13;2.78;;;23.50;55.70;;;;;;5053690;28;20175;-67
2022/06/18 06:38:42;;;;;;;3.22;3.03;;;23.50;55.70;;;;;;5053405;28;20179;-67
2022/06/18 06:41:13;;;;;;;2.80;2.60;;;23.40;55.70;;;;;;5053166;28;20198;-67
2022/06/18 06:43:38;;;;;;;4.60;3.42;;;23.50;55.70;;;;;;5052019;28;20202;-67
2022/06/18 06:46:04;;;;;;;3.38;3.08;;;23.50;55.80;;;;;;5053423;28;20170;-67
2022/06/18 06:48:29;;;;;;;3.53;3.20;;;23.50;55.70;;;;;;5052852;28;20170;-67
2022/06/18 06:50:55;;;;;;;2.40;2.30;;;23.50;55.70;;;;;;5052476;28;20265;-68
2022/06/18 06:53:21;;;;;;;3.20;2.95;;;23.50;56.30;;;;;;5053615;28;20197;-68
2022/06/18 06:58:30;;;;;;;3.10;2.90;;;23.60;55.80;;;;;;5053390;28;20691;-67
2022/06/18 07:00:57;;;;;;;3.13;2.92;;;23.60;55.80;;;;;;5052212;28;20175;-66
2022/06/18 07:03:25;;;;;;;3.22;3.03;;;23.60;55.80;;;;;;5053295;28;20231;-66
2022/06/18 07:05:51;;;;;;;3.83;3.53;;;23.60;55.80;;;;;;5053168;28;20198;-66
2022/06/18 07:08:16;;;;;;;3.30;3.03;;;23.60;55.80;;;;;;5052639;28;20175;-66
2022/06/18 07:10:43;;;;;;;3.33;3.03;;;23.60;55.70;;;;;;5052968;28;20186;-69
2022/06/18 07:13:08;;;;;;;4.07;3.67;;;23.50;55.70;;;;;;5052934;28;20529;-68
2022/06/18 07:15:34;;;;;;;3.35;3.15;;;23.60;55.80;;;;;;5052494;28;20181;-69
2022/06/18 07:18:00;;;;;;;4.05;3.45;;;23.60;55.80;;;;;;5051963;28;20189;-69
2022/06/18 07:20:25;;;;;;;4.60;3.58;;;23.60;55.80;;;;;;5051960;28;20190;-69
2022/06/18 07:22:51;;;;;;;3.53;3.13;;;23.60;55.80;;;;;;5052105;28;20194;-69
2022/06/18 07:25:16;;;;;;;3.97;3.58;;;23.60;55.70;;;;;;5053014;28;20293;-69
2022/06/18 07:27:42;;;;;;;3.47;3.17;;;23.70;55.80;;;;;;5052686;28;20584;-68
2022/06/18 07:30:10;;;;;;;3.00;2.63;;;23.70;55.80;;;;;;5052291;28;20205;-68
2022/06/18 07:32:36;;;;;;;3.47;3.20;;;23.70;55.80;;;;;;5052786;28;20183;-67
2022/06/18 07:35:03;;;;;;;3.47;3.20;;;23.60;55.80;;;;;;5052693;28;20171;-66
2022/06/18 07:37:28;;;;;;;3.05;2.85;;;23.70;55.80;;;;;;5052127;28;20171;-68
2022/06/18 07:39:54;;;;;;;3.30;3.10;;;23.70;55.80;;;;;;5052343;28;20178;-67
2022/06/18 07:42:19;;;;;;;2.95;2.63;;;23.70;55.70;;;;;;5052533;28;20178;-66
2022/06/18 07:44:45;;;;;;;3.50;3.20;;;23.70;55.70;;;;;;5051749;28;20229;-67
2022/06/18 07:47:13;;;;;;;3.20;2.90;;;23.70;55.80;;;;;;5052654;28;20167;-67
2022/06/18 07:49:38;;;;;;;3.47;3.17;;;23.70;55.70;;;;;;5051192;28;20171;-67
2022/06/18 07:52:04;;;;;;;3.50;3.17;;;23.70;55.70;;;;;;5051706;28;20190;-67
2022/06/18 07:54:29;;;;;;;3.03;2.83;;;23.70;55.70;;;;;;5052450;28;20175;-67
2022/06/18 07:56:55;;;;;;;3.00;2.67;;;23.70;55.70;;;;;;5052075;28;20206;-67
2022/06/18 07:59:20;;;;;;;3.38;3.08;;;23.70;55.70;;;;;;5051665;28;20186;-65
2022/06/18 08:01:46;;;;;;;3.88;3.00;;;23.80;55.70;;;;;;5051891;28;20175;-69
2022/06/18 08:04:11;;;;;;;3.58;3.28;;;23.80;55.80;;;;;;5051557;28;20226;-73
2022/06/18 08:06:37;;;;;;;4.90;3.30;;;23.80;55.80;;;;;;5051822;28;20262;-68
2022/06/18 08:09:02;;;;;;;3.80;2.97;;;23.80;55.80;;;;;;5052116;28;20179;-71
2022/06/18 08:11:29;;;;;;;3.13;2.80;;;23.80;55.80;;;;;;5051400;28;20171;-70
2022/06/18 08:13:55;;;;;;;3.35;3.15;;;23.80;55.80;;;;;;5050445;28;20187;-70
2022/06/18 08:16:21;;;;;;;3.60;3.08;;;23.90;55.90;;;;;;5051117;28;20171;-71
2022/06/18 08:18:46;;;;;;;3.83;2.95;;;23.90;55.90;;;;;;5051197;28;20266;-71
2022/06/18 08:21:33;;;;;;;5.68;3.15;;;23.90;55.90;;;;;;5051975;28;20262;-71
2022/06/18 08:24:01;;;;;;;3.60;3.28;;;23.90;56.00;;;;;;5051587;28;20207;-71
2022/06/18 08:26:27;;;;;;;4.03;3.58;;;23.90;56.00;;;;;;5051423;28;20179;-70
2022/06/18 08:28:53;;;;;;;3.78;3.47;;;23.90;56.00;;;;;;5050575;28;20186;-70
2022/06/18 08:31:18;;;;;;;3.80;3.50;;;24.00;56.10;;;;;;5050804;28;20198;-71
2022/06/18 08:33:44;;;;;;;3.97;3.25;;;24.00;56.10;;;;;;5050841;28;20179;-70
2022/06/18 08:36:12;;;;;;;3.47;3.15;;;24.00;56.10;;;;;;5051719;28;20171;-69
2022/06/18 08:38:40;;;;;;;5.47;3.70;;;24.00;56.20;;;;;;5050130;28;20176;-70
2022/06/18 08:41:24;;;;;;;3.20;2.95;;;24.00;56.20;;;;;;5050027;28;20193;-71
2022/06/18 08:43:58;;;;;;;4.10;3.20;;;24.00;56.30;;;;;;5051560;28;20260;-71
2022/06/18 08:47:04;;;;;;;4.78;2.92;;;24.00;56.30;;;;;;5049971;28;20572;-70
2022/06/18 08:49:41;;;;;;;3.80;2.83;;;24.00;56.40;;;;;;5050993;28;20182;-71
2022/06/18 08:52:28;;;;;;;4.25;3.28;;;24.00;56.40;;;;;;5051723;28;20531;-71
2022/06/18 08:55:32;;;;;;;3.63;3.30;;;24.10;56.40;;;;;;5050691;28;20205;-71
2022/06/18 08:58:06;;;;;;;3.45;3.05;;;24.10;56.30;;;;;;5050322;28;20183;-70
2022/06/18 09:01:00;;;;;;;4.95;3.40;;;24.10;56.40;;;;;;5049635;28;20210;-70
2022/06/18 09:04:00;;;;;;;4.43;3.42;;;24.10;56.30;;;;;;5050281;28;20258;-70
2022/06/18 09:06:25;;;;;;;4.88;3.00;;;24.10;56.30;;;;;;5051794;28;20179;-69
2022/06/18 09:09:02;;;;;;;3.50;3.20;;;24.10;56.30;;;;;;5050273;28;20175;-71
2022/06/18 09:11:41;;;;;;;4.90;3.13;;;24.20;56.30;;;;;;5050346;28;20650;-72
2022/06/18 09:14:14;;;;;;;4.28;3.17;;;24.10;56.20;;;;;;5053142;28;20190;-72
2022/06/18 09:16:54;;;;;;;3.38;3.08;;;24.50;56.30;;;;;;5053138;28;20594;-75
2022/06/18 09:19:20;;;;;;;5.22;3.70;;;24.20;56.20;;;;;;5054496;28;20175;-73
2022/06/18 09:21:57;;;;;;;3.90;2.90;;;24.20;56.20;;;;;;5054461;28;20185;-72
2022/06/18 09:24:25;;;;;;;4.15;3.35;;;24.20;56.20;;;;;;5054889;28;20697;-73
2022/06/18 09:26:54;;;;;;;3.58;3.20;;;24.20;56.10;;;;;;5053311;28;20179;-70
2022/06/18 09:29:47;;;;;;;3.65;2.90;;;24.20;56.10;;;;;;5053290;28;20187;-71
2022/06/18 09:32:34;;;;;;;4.43;3.33;;;24.30;56.20;;;;;;5062043;28;20191;-68
2022/06/18 09:35:15;;;;;;;3.83;3.50;;;24.30;56.10;;;;;;5043624;28;20252;-68
2022/06/18 09:37:58;;;;;;;4.45;3.15;;;24.30;56.20;;;;;;5060122;28;20253;-69
2022/06/18 09:40:35;;;;;;;3.58;3.22;;;24.30;56.10;;;;;;5068518;28;20229;-70
2022/06/18 09:43:19;;;;;;;4.18;3.42;;;24.30;56.10;;;;;;5057099;28;20174;-69
2022/06/18 09:45:47;;;;;;;4.03;3.63;;;24.40;56.10;;;;;;5074592;28;20323;-68
2022/06/18 09:48:13;;;;;;;5.70;3.58;;;24.40;56.70;;;;;;5064476;28;20218;-69
2022/06/18 09:50:54;;;;;;;3.97;3.45;;;24.30;56.10;;;;;;5053683;28;20206;-68
2022/06/18 09:53:22;;;;;;;3.67;3.33;;;24.40;56.10;;;;;;5054376;28;20217;-69
2022/06/18 09:55:50;;;;;;;3.13;2.92;;;24.50;56.10;;;;;;5054231;28;20510;-70
2022/06/18 09:58:20;;;;;;;3.33;3.10;;;24.40;56.10;;;;;;5036577;28;20602;-68
2022/06/18 10:00:46;;;;;;;3.70;3.40;;;24.50;56.10;;;;;;5036783;28;20182;-68
2022/06/18 10:06:52;;;;;;;3.60;3.30;;;24.50;56.10;;;;;;5036545;28;20218;-68
2022/06/18 10:08:47;;;;;;;6.50;3.50;;;24.50;56.10;;;;;;5058912;28;20552;-69
2022/06/18 10:11:13;;;;;;;3.58;3.25;;;24.50;56.10;;;;;;5055676;28;20178;-71
2022/06/18 10:13:49;;;;;;;3.40;3.10;;;24.50;56.10;;;;;;5073023;28;20220;-71
2022/06/18 10:16:23;;;;;;;3.97;3.22;;;24.50;56.10;;;;;;5073062;28;20647;-72
2022/06/18 10:19:21;;;;;;;3.28;2.97;;;24.50;56.00;;;;;;5072287;28;20177;-71
2022/06/18 10:22:11;;;;;;;4.00;3.60;;;24.60;56.10;;;;;;5071703;28;20189;-71
2022/06/18 10:24:38;;;;;;;3.88;3.58;;;24.60;56.10;;;;;;5057797;28;20217;-71
2022/06/18 10:27:11;;;;;;;4.22;3.47;;;24.60;56.10;;;;;;5072032;28;20202;-69
2022/06/18 10:29:45;;;;;;;3.85;3.00;;;24.60;56.10;;;;;;5072626;28;20182;-68
2022/06/18 10:32:29;;;;;;;4.72;3.42;;;24.60;56.10;;;;;;5073265;28;20743;-68
2022/06/18 10:35:11;;;;;;;3.60;3.30;;;24.60;56.10;;;;;;5073639;28;20268;-68
2022/06/18 10:37:46;;;;;;;4.25;2.88;;;24.60;56.00;;;;;;5072466;28;20174;-68
2022/06/18 10:40:18;;;;;;;4.03;3.28;;;24.60;56.10;;;;;;5057338;28;20634;-69
2022/06/18 10:43:01;;;;;;;3.50;3.17;;;24.70;56.10;;;;;;5053565;28;20206;-68
2022/06/18 10:45:35;;;;;;;3.90;3.05;;;24.70;56.10;;;;;;5052522;28;20203;-69
2022/06/18 10:48:01;;;;;;;3.50;3.20;;;24.70;56.10;;;;;;5051778;28;20469;-69
2022/06/18 10:50:28;;;;;;;5.40;3.65;;;24.70;56.80;;;;;;5036019;28;20601;-68
2022/06/18 10:53:02;;;;;;;5.00;3.45;;;24.70;56.20;;;;;;5053330;28;20237;-69
2022/06/18 10:55:28;;;;;;;4.38;3.60;;;24.70;56.20;;;;;;5053682;28;20175;-69
2022/06/18 10:57:54;;;;;;;5.55;3.30;;;24.80;56.30;;;;;;5053021;28;20229;-70
2022/06/18 11:00:25;;;;;;;3.50;3.20;;;24.80;56.30;;;;;;5052520;28;20185;-68
2022/06/18 11:02:55;;;;;;;4.60;3.00;;;24.80;56.30;;;;;;5053026;28;20190;-67
2022/06/18 11:05:32;;;;;;;4.03;3.60;;;24.80;56.30;;;;;;5052027;28;20292;-68
2022/06/18 11:08:00;;;;;;;5.10;3.17;;;24.80;56.30;;;;;;5051426;28;20181;-68
2022/06/18 11:10:34;;;;;;;3.58;3.28;;;24.80;56.30;;;;;;5053364;28;20258;-72
2022/06/18 11:13:00;;;;;;;7.28;3.55;;;24.90;56.30;;;;;;5035109;28;20186;-71
2022/06/18 11:15:34;;;;;;;4.85;3.30;;;24.90;56.30;;;;;;5050992;28;20176;-73
2022/06/18 11:18:20;;;;;;;7.97;3.75;;;24.90;56.30;;;;;;5052749;28;20209;-71
2022/06/18 11:21:04;;;;;;;5.30;3.40;;;24.90;56.30;;;;;;5052593;28;20598;-73
2022/06/18 11:23:31;;;;;;;7.47;3.28;;;24.90;56.30;;;;;;5035373;28;20242;-70
2022/06/18 11:25:57;;;;;;;4.90;3.33;;;24.90;56.30;;;;;;5051418;28;20183;-71
2022/06/18 11:28:36;;;;;;;3.08;2.80;;;24.90;56.30;;;;;;5050825;28;20628;-69
2022/06/18 11:31:03;;;;;;;6.45;3.17;;;24.90;56.30;;;;;;5035375;28;20171;-72
2022/06/18 11:33:36;;;;;;;4.00;3.53;;;24.90;56.30;;;;;;5052499;28;20225;-67
2022/06/18 11:36:17;;;;;;;7.32;3.80;;;25.00;56.50;;;;;;5051844;28;20207;-67
2022/06/18 11:38:54;;;;;;;7.55;3.47;;;25.00;56.40;;;;;;5055773;28;20166;-69
2022/06/18 11:41:25;;;;;;;5.82;3.85;;;25.00;56.30;;;;;;5072722;28;20178;-69
2022/06/18 11:44:06;;;;;;;7.93;3.72;;;25.10;56.40;;;;;;5070118;28;20210;-67
2022/06/18 11:46:39;;;;;;;4.88;3.80;;;25.10;56.40;;;;;;5056497;28;20205;-68
2022/06/18 11:49:08;;;;;;;6.85;3.53;;;25.10;56.40;;;;;;5055235;28;20185;-69
2022/06/18 11:51:38;;;;;;;4.68;3.33;;;25.20;56.50;;;;;;5070327;28;20174;-68
2022/06/18 11:54:16;;;;;;;7.15;3.92;;;25.20;56.30;;;;;;5054852;28;20253;-68
2022/06/18 11:56:56;;;;;;;14.18;3.90;;;25.20;56.30;;;;;;5071168;28;20178;-70
2022/06/18 11:59:46;;;;;;;11.25;4.57;;;25.20;56.20;;;;;;5072512;28;20220;-67
2022/06/18 12:02:40;;;;;;;12.13;4.28;;;25.10;56.20;;;;;;5071063;28;20170;-67
2022/06/18 12:05:11;;;;;;;6.82;3.97;;;25.10;56.40;;;;;;5070285;28;20244;-66
2022/06/18 12:07:40;;;;;;;6.95;4.05;;;25.10;56.20;;;;;;5072105;28;20175;-67
2022/06/18 12:10:13;;;;;;;5.90;3.60;;;25.10;56.20;;;;;;5072084;28;20641;-69
2022/06/18 12:12:54;;;;;;;7.97;3.58;;;25.20;56.10;;;;;;5053539;28;20214;-68
2022/06/18 12:15:27;;;;;;;6.53;3.63;;;25.20;56.00;;;;;;5071767;28;20308;-71
2022/06/18 12:17:57;;;;;;;4.05;3.53;;;25.30;56.00;;;;;;5069936;28;20259;-70
2022/06/18 12:20:41;;;;;;;5.93;3.80;;;25.30;55.90;;;;;;5071931;28;20181;-68
2022/06/18 12:23:13;;;;;;;5.53;3.55;;;25.30;55.90;;;;;;5071892;28;20223;-69
2022/06/18 12:25:59;;;;;;;4.53;3.78;;;25.40;55.90;;;;;;5069646;28;20190;-69
2022/06/18 12:28:43;;;;;;;6.72;4.13;;;25.40;55.80;;;;;;5070901;28;20162;-67
2022/06/18 12:31:18;;;;;;;4.57;3.63;;;25.40;55.80;;;;;;5072095;28;20186;-67
2022/06/18 12:34:01;;;;;;;6.03;3.28;;;25.40;55.80;;;;;;5069730;28;20185;-66
2022/06/18 12:36:44;;;;;;;4.30;3.47;;;25.40;55.70;;;;;;5053973;28;20261;-67
2022/06/18 12:39:21;;;;;;;4.85;3.72;;;25.50;55.60;;;;;;5064022;28;20244;-68
2022/06/18 12:42:13;;;;;;;7.03;3.42;;;25.50;55.50;;;;;;5051372;28;20179;-67
2022/06/18 12:44:41;;;;;;;4.65;3.97;;;25.50;55.50;;;;;;5048216;28;20227;-67
2022/06/18 12:47:31;;;;;;;5.63;3.30;;;25.50;55.50;;;;;;5051084;28;20167;-67
2022/06/18 12:50:14;;;;;;;5.43;3.40;;;25.50;55.50;;;;;;5055445;28;20269;-67
2022/06/18 12:52:52;;;;;;;4.03;3.42;;;25.50;55.50;;;;;;5054825;28;20174;-67
2022/06/18 12:55:36;;;;;;;4.15;3.75;;;25.50;55.60;;;;;;5055900;28;20181;-68
2022/06/18 12:58:15;;;;;;;4.70;3.80;;;25.50;55.60;;;;;;5038131;28;20254;-67
2022/06/18 13:00:53;;;;;;;4.10;3.70;;;25.50;55.60;;;;;;5037959;28;20169;-67
2022/06/18 13:03:26;;;;;;;5.22;3.55;;;25.50;55.50;;;;;;5055175;28;20270;-67
2022/06/18 13:05:54;;;;;;;3.85;3.50;;;25.60;55.60;;;;;;5053876;28;20183;-67
2022/06/18 13:08:58;;;;;;;5.18;3.42;;;25.60;55.50;;;;;;5036959;28;20710;-67
2022/06/18 13:11:49;;;;;;;6.35;3.72;;;25.60;55.50;;;;;;5055291;28;20284;-69
2022/06/18 13:14:19;;;;;;;5.05;3.65;;;25.60;55.40;;;;;;5051351;28;20186;-69
2022/06/18 13:16:49;;;;;;;3.95;3.50;;;25.60;55.40;;;;;;5053820;28;20171;-69